Bachir Chihani — 7TJA — position and weather

sailwx.info

Track history (hours):
 
Tides and Currents Weather Stations Pressure Air Temp Water Temp Dewpoint Dewpoint Depression Visibility Wind Speed Wind Dir Waves Ship Positions

Bachir Chihani

Last reported at 2016-Jun-29 00:16 UTC. Time now 2016-Jun-30 10:31 UTC.
Position N 39°45' E 025°48'.

Length 280 m; draft 11.3 m.

Type: Tanker. MMSI: 605106010.

Date/timePositionNaut miles runAvg speedWind from/ knotsBaromVisibWave heightAir tempDewpointWater temp
2016-Jun-29 00:16N 39°45' E 025°48'910.7
2016-Jun-28 23:23N 39°37' E 025°41'11212.1
2016-Jun-28 14:06N 37°57' E 024°37'814.2
2016-Jun-28 13:33N 37°50' E 024°34'3113.1
2016-Jun-28 11:12N 37°23' E 024°14'1014.5
2016-Jun-28 10:30N 37°13' E 024°11'3712.5
2016-Jun-28 07:33N 36°40' E 023°52'1313.1
2016-Jun-28 06:32N 36°30' E 023°40'2612.9
2016-Jun-28 04:29N 36°11' E 023°17'34812.9
2016-Jun-27 01:33N 36°20' E 016°06'2813.9
2016-Jun-26 23:30N 36°21' E 015°31'1314.1
2016-Jun-26 22:33N 36°22' E 015°15'1413.9
2016-Jun-26 21:33N 36°15' E 014°59'1414.3
2016-Jun-26 20:33N 36°05' E 014°47'1010.2
2016-Jun-26 19:34N 35°58' E 014°38'1 0.5
2016-Jun-26 18:33N 35°57' E 014°38'2 2.1
2016-Jun-26 17:33N 35°58' E 014°40'7 7.2
2016-Jun-26 16:33N 36°04' E 014°46'1312.5
2016-Jun-26 15:33N 36°12' E 014°57'1312.6
2016-Jun-26 14:33N 36°22' E 015°07'1313.5
2016-Jun-26 13:33N 36°25' E 014°51'1413.9
2016-Jun-26 12:33N 36°27' E 014°33'1414.0
2016-Jun-26 11:33N 36°29' E 014°16'1414.4
2016-Jun-26 10:34N 36°31' E 013°59'1414.5
2016-Jun-26 09:33N 36°33' E 013°41'1514.7
2016-Jun-26 08:34N 36°35' E 013°23'1414.2
2016-Jun-26 07:33N 36°37' E 013°05'1414.5
2016-Jun-26 06:34N 36°41' E 012°48'1414.4
2016-Jun-26 05:34N 36°48' E 012°32'1514.7
2016-Jun-26 04:33N 36°55' E 012°15'7714.9
2016-Jun-25 23:21N 37°27' E 010°47'1315.0
2016-Jun-25 22:27N 37°30' E 010°31'1314.7
2016-Jun-25 21:33N 37°34' E 010°15'3414.4
2016-Jun-25 19:10N 37°29' E 009°32'1414.2
2016-Jun-25 18:10N 37°25' E 009°15'913.7
2016-Jun-25 17:31N 37°23' E 009°04'1414.0
2016-Jun-25 16:33N 37°20' E 008°47'2713.7
2016-Jun-25 14:33N 37°18' E 008°13'17014.1
2016-Jun-25 02:28N 37°09' E 004°39'1213.3
2016-Jun-25 01:33N 37°07' E 004°24'1313.3
2016-Jun-25 00:33N 37°06' E 004°08'1313.2
2016-Jun-24 23:33N 37°06' E 003°51'1313.3
2016-Jun-24 22:33N 37°03' E 003°35'1313.0
2016-Jun-24 21:32N 37°02' E 003°18'1212.2
2016-Jun-24 20:33N 37°01' E 003°03'1313.1
2016-Jun-24 19:33N 36°59' E 002°47'1413.9
2016-Jun-24 18:33N 36°56' E 002°30'1414.5
2016-Jun-24 17:33N 36°53' E 002°12'4214.0
2016-Jun-24 14:33N 36°45' E 001°21'1414.1
2016-Jun-24 13:33N 36°42' E 001°04'1414.2
2016-Jun-24 12:33N 36°36' E 000°48'1414.3
2016-Jun-24 11:33N 36°28' E 000°33'1614.2
2016-Jun-24 10:28N 36°20' E 000°17'1313.8
2016-Jun-24 09:33N 36°13' E 000°03'1312.9
2016-Jun-24 08:34N 36°02' W 000°06'1110.9
2016-Jun-24 07:33N 35°52' W 000°11'5 1.1
2016-Jun-24 03:24N 35°49' W 000°15'0 0.0
2016-Jun-23 22:33N 35°49' W 000°15'0 0.0
2016-Jun-23 21:33N 35°49' W 000°15'0 0.0
2016-Jun-23 16:27N 35°49' W 000°15'0 0.0
2016-Jun-23 15:33N 35°49' W 000°15'7 0.3
2016-Jun-22 16:13N 35°54' W 000°09'7 4.2
2016-Jun-22 14:33N 35°49' W 000°15'3 2.5
2016-Jun-22 13:33N 35°51' W 000°13'4 3.6
2016-Jun-22 12:33N 35°53' W 000°10'1 1.3
2016-Jun-22 11:33N 35°54' W 000°09'2 2.4
2016-Jun-22 10:32N 35°53' W 000°12'4 4.0
2016-Jun-22 09:33N 35°57' W 000°11'5 5.3
2016-Jun-22 08:32N 36°01' W 000°07'6 5.8
2016-Jun-22 07:33N 36°06' W 000°03'7 5.8
2016-Jun-22 06:17N 36°12' E 000°02'4 5.6
2016-Jun-22 05:33N 36°15' E 000°06'6 5.7
2016-Jun-22 04:32N 36°18' E 000°12'13 5.3
2016-Jun-22 02:05N 36°24' E 000°26'3 5.2
2016-Jun-22 01:33N 36°26' E 000°29'5 4.8
2016-Jun-22 00:26N 36°29' E 000°34'2 2.1
2016-Jun-21 23:33N 36°29' E 000°32'3 3.4
2016-Jun-21 22:33N 36°27' E 000°29'3 3.2
2016-Jun-21 21:33N 36°25' E 000°25'3 2.7
2016-Jun-21 20:33N 36°23' E 000°23'3 2.6
2016-Jun-21 19:33N 36°22' E 000°20'3 2.6
2016-Jun-21 18:34N 36°20' E 000°17'3 2.6
2016-Jun-21 17:33N 36°19' E 000°15'3 2.5
2016-Jun-21 16:33N 36°17' E 000°12'2 2.4
2016-Jun-21 15:34N 36°15' E 000°10'8 3.9
2016-Jun-21 13:32N 36°20' E 000°18'5 5.2
2016-Jun-21 12:33N 36°23' E 000°23'27 4.4
2016-Jun-21 06:28N 36°37' E 000°51'7 3.8
2016-Jun-21 04:33N 36°42' E 000°58'4 4.2
2016-Jun-21 03:33N 36°39' E 000°54'5 4.5
2016-Jun-21 02:29N 36°37' E 000°49'4 4.5
2016-Jun-21 01:33N 36°35' E 000°44'4 4.3
2016-Jun-21 00:33N 36°32' E 000°40'4 4.1
2016-Jun-20 23:33N 36°30' E 000°36'4 4.0
2016-Jun-20 22:33N 36°28' E 000°31'4 3.6
2016-Jun-20 21:33N 36°26' E 000°28'24 3.4
2016-Jun-20 14:29N 36°11' E 000°05'25 2.1
2016-Jun-20 02:28N 36°26' E 000°29'7 3.8
2016-Jun-20 00:33N 36°29' E 000°38'5 2.7
2016-Jun-19 22:33N 36°33' E 000°43'6 5.5
2016-Jun-19 21:25N 36°30' E 000°36'29 4.3
2016-Jun-19 14:33N 36°15' E 000°05'  
Track history (hours):
 
Tides and Currents Weather Stations Pressure Air Temp Water Temp Dewpoint Dewpoint Depression Visibility Wind Speed Wind Dir Waves Ship Positions

Bachir Chihani

Last reported at 2016-Jun-29 00:16 UTC. Time now 2016-Jun-30 10:31 UTC.
Position N 39°45' E 025°48'.

Length 280 m; draft 11.3 m.

Type: Tanker. MMSI: 605106010.

Date/timePositionNaut miles runAvg speedWind from/ knotsBaromVisibWave heightAir tempDewpointWater temp
2016-Jun-29 00:16N 39°45' E 025°48'910.7
2016-Jun-28 23:23N 39°37' E 025°41'11212.1
2016-Jun-28 14:06N 37°57' E 024°37'814.2
2016-Jun-28 13:33N 37°50' E 024°34'3113.1
2016-Jun-28 11:12N 37°23' E 024°14'1014.5
2016-Jun-28 10:30N 37°13' E 024°11'3712.5
2016-Jun-28 07:33N 36°40' E 023°52'1313.1
2016-Jun-28 06:32N 36°30' E 023°40'2612.9
2016-Jun-28 04:29N 36°11' E 023°17'34812.9
2016-Jun-27 01:33N 36°20' E 016°06'2813.9
2016-Jun-26 23:30N 36°21' E 015°31'1314.1
2016-Jun-26 22:33N 36°22' E 015°15'1413.9
2016-Jun-26 21:33N 36°15' E 014°59'1414.3
2016-Jun-26 20:33N 36°05' E 014°47'1010.2
2016-Jun-26 19:34N 35°58' E 014°38'1 0.5
2016-Jun-26 18:33N 35°57' E 014°38'2 2.1
2016-Jun-26 17:33N 35°58' E 014°40'7 7.2
2016-Jun-26 16:33N 36°04' E 014°46'1312.5
2016-Jun-26 15:33N 36°12' E 014°57'1312.6
2016-Jun-26 14:33N 36°22' E 015°07'1313.5
2016-Jun-26 13:33N 36°25' E 014°51'1413.9
2016-Jun-26 12:33N 36°27' E 014°33'1414.0
2016-Jun-26 11:33N 36°29' E 014°16'1414.4
2016-Jun-26 10:34N 36°31' E 013°59'1414.5
2016-Jun-26 09:33N 36°33' E 013°41'1514.7
2016-Jun-26 08:34N 36°35' E 013°23'1414.2
2016-Jun-26 07:33N 36°37' E 013°05'1414.5
2016-Jun-26 06:34N 36°41' E 012°48'1414.4
2016-Jun-26 05:34N 36°48' E 012°32'1514.7
2016-Jun-26 04:33N 36°55' E 012°15'7714.9
2016-Jun-25 23:21N 37°27' E 010°47'1315.0
2016-Jun-25 22:27N 37°30' E 010°31'1314.7
2016-Jun-25 21:33N 37°34' E 010°15'3414.4
2016-Jun-25 19:10N 37°29' E 009°32'1414.2
2016-Jun-25 18:10N 37°25' E 009°15'913.7
2016-Jun-25 17:31N 37°23' E 009°04'1414.0
2016-Jun-25 16:33N 37°20' E 008°47'2713.7
2016-Jun-25 14:33N 37°18' E 008°13'17014.1
2016-Jun-25 02:28N 37°09' E 004°39'1213.3
2016-Jun-25 01:33N 37°07' E 004°24'1313.3
2016-Jun-25 00:33N 37°06' E 004°08'1313.2
2016-Jun-24 23:33N 37°06' E 003°51'1313.3
2016-Jun-24 22:33N 37°03' E 003°35'1313.0
2016-Jun-24 21:32N 37°02' E 003°18'1212.2
2016-Jun-24 20:33N 37°01' E 003°03'1313.1
2016-Jun-24 19:33N 36°59' E 002°47'1413.9
2016-Jun-24 18:33N 36°56' E 002°30'1414.5
2016-Jun-24 17:33N 36°53' E 002°12'4214.0
2016-Jun-24 14:33N 36°45' E 001°21'1414.1
2016-Jun-24 13:33N 36°42' E 001°04'1414.2
2016-Jun-24 12:33N 36°36' E 000°48'1414.3
2016-Jun-24 11:33N 36°28' E 000°33'1614.2
2016-Jun-24 10:28N 36°20' E 000°17'1313.8
2016-Jun-24 09:33N 36°13' E 000°03'1312.9
2016-Jun-24 08:34N 36°02' W 000°06'1110.9
2016-Jun-24 07:33N 35°52' W 000°11'5 1.1
2016-Jun-24 03:24N 35°49' W 000°15'0 0.0
2016-Jun-23 22:33N 35°49' W 000°15'0 0.0
2016-Jun-23 21:33N 35°49' W 000°15'0 0.0
2016-Jun-23 16:27N 35°49' W 000°15'0 0.0
2016-Jun-23 15:33N 35°49' W 000°15'7 0.3
2016-Jun-22 16:13N 35°54' W 000°09'7 4.2
2016-Jun-22 14:33N 35°49' W 000°15'3 2.5
2016-Jun-22 13:33N 35°51' W 000°13'4 3.6
2016-Jun-22 12:33N 35°53' W 000°10'1 1.3
2016-Jun-22 11:33N 35°54' W 000°09'2 2.4
2016-Jun-22 10:32N 35°53' W 000°12'4 4.0
2016-Jun-22 09:33N 35°57' W 000°11'5 5.3
2016-Jun-22 08:32N 36°01' W 000°07'6 5.8
2016-Jun-22 07:33N 36°06' W 000°03'7 5.8
2016-Jun-22 06:17N 36°12' E 000°02'4 5.6
2016-Jun-22 05:33N 36°15' E 000°06'6 5.7
2016-Jun-22 04:32N 36°18' E 000°12'13 5.3
2016-Jun-22 02:05N 36°24' E 000°26'3 5.2
2016-Jun-22 01:33N 36°26' E 000°29'5 4.8
2016-Jun-22 00:26N 36°29' E 000°34'2 2.1
2016-Jun-21 23:33N 36°29' E 000°32'3 3.4
2016-Jun-21 22:33N 36°27' E 000°29'3 3.2
2016-Jun-21 21:33N 36°25' E 000°25'3 2.7
2016-Jun-21 20:33N 36°23' E 000°23'3 2.6
2016-Jun-21 19:33N 36°22' E 000°20'3 2.6
2016-Jun-21 18:34N 36°20' E 000°17'3 2.6
2016-Jun-21 17:33N 36°19' E 000°15'3 2.5
2016-Jun-21 16:33N 36°17' E 000°12'2 2.4
2016-Jun-21 15:34N 36°15' E 000°10'8 3.9
2016-Jun-21 13:32N 36°20' E 000°18'5 5.2
2016-Jun-21 12:33N 36°23' E 000°23'27 4.4
2016-Jun-21 06:28N 36°37' E 000°51'7 3.8
2016-Jun-21 04:33N 36°42' E 000°58'4 4.2
2016-Jun-21 03:33N 36°39' E 000°54'5 4.5
2016-Jun-21 02:29N 36°37' E 000°49'4 4.5
2016-Jun-21 01:33N 36°35' E 000°44'4 4.3
2016-Jun-21 00:33N 36°32' E 000°40'4 4.1
2016-Jun-20 23:33N 36°30' E 000°36'4 4.0
2016-Jun-20 22:33N 36°28' E 000°31'4 3.6
2016-Jun-20 21:33N 36°26' E 000°28'24 3.4
2016-Jun-20 14:29N 36°11' E 000°05'25 2.1
2016-Jun-20 02:28N 36°26' E 000°29'7 3.8
2016-Jun-20 00:33N 36°29' E 000°38'5 2.7
2016-Jun-19 22:33N 36°33' E 000°43'6 5.5
2016-Jun-19 21:25N 36°30' E 000°36'29 4.3
2016-Jun-19 14:33N 36°15' E 000°05'  

Dump ship's entire track history